Time;durP1;ratioP1;P1;durP2;ratioP2;P2;SDS_P1;SDS_P2;PMS_P1;PMS_P2;Temp;Humidity;BMP_temperature;BMP_pressure;BME280_temperature;BME280_humidity;BME280_pressure;Samples;Min_cycle;Max_cycle;Signal;HPM_P1;HPM_P2
2023/08/17 00:01:23;;;;;;;5.10;3.03;;;;;;;23.49;nan;61948.06;5031639;28;20175;-64
2023/08/17 00:03:49;;;;;;;4.38;2.83;;;;;;;23.41;nan;62058.94;5031564;28;20245;-65
2023/08/17 00:06:14;;;;;;;4.78;3.35;;;;;;;23.56;nan;62088.53;5030117;28;20194;-63
2023/08/17 00:08:39;;;;;;;6.50;3.13;;;;;;;23.07;nan;62114.09;5031260;28;20227;-66
2023/08/17 00:11:05;;;;;;;7.18;3.05;;;;;;;23.33;nan;62133.28;5031141;28;20642;-65
2023/08/17 00:13:30;;;;;;;8.02;3.30;;;;;;;23.13;nan;62124.09;5031045;28;20194;-65
2023/08/17 00:15:55;;;;;;;5.68;3.10;;;;;;;22.93;nan;62085.69;5031278;28;20227;-64
2023/08/17 00:18:21;;;;;;;6.28;3.33;;;;;;;22.99;nan;62063.84;5031425;28;20266;-65
2023/08/17 00:20:46;;;;;;;6.82;3.53;;;;;;;23.06;nan;62042.59;5031379;28;20244;-66
2023/08/17 00:23:12;;;;;;;4.32;3.00;;;;;;;23.19;nan;62026.09;5031410;28;20258;-64
2023/08/17 00:25:37;;;;;;;4.63;3.25;;;;;;;22.98;nan;62067.38;5031156;28;20237;-64
2023/08/17 00:28:03;;;;;;;4.68;3.03;;;;;;;22.83;nan;62009.72;5030972;28;20174;-65
2023/08/17 00:30:28;;;;;;;6.45;3.30;;;;;;;22.55;nan;61975.25;5031211;28;20665;-64
2023/08/17 00:32:53;;;;;;;4.07;2.90;;;;;;;22.69;nan;62084.38;5031653;28;20678;-65
2023/08/17 00:35:19;;;;;;;6.63;3.63;;;;;;;22.44;nan;62061.69;5031198;28;20182;-62
2023/08/17 00:37:44;;;;;;;5.05;3.33;;;;;;;22.42;nan;62015.16;5031182;28;20167;-65
2023/08/17 00:40:10;;;;;;;5.07;3.40;;;;;;;22.40;nan;61880.63;5029221;28;20190;-64
2023/08/17 00:42:35;;;;;;;4.93;3.40;;;;;;;;;;5029195;28;20254;-64
2023/08/17 00:45:00;;;;;;;4.72;3.10;;;;;;;22.01;nan;61849.38;5028090;28;20180;-63
2023/08/17 00:47:26;;;;;;;7.03;3.83;;;;;;;22.20;nan;62044.75;5029372;28;20193;-63
2023/08/17 00:49:51;;;;;;;8.48;3.42;;;;;;;22.00;nan;61856.03;5029008;28;20214;-65
2023/08/17 00:52:17;;;;;;;6.60;3.83;;;;;;;22.13;nan;61911.88;5029288;28;20193;-62
2023/08/17 00:54:42;;;;;;;5.95;3.35;;;;;;;21.79;nan;61791.09;5030760;28;20623;-64
2023/08/17 00:57:09;;;;;;;5.47;3.33;;;;;;;21.79;nan;61793.13;5031031;28;20182;-65
2023/08/17 00:59:35;;;;;;;5.60;3.45;;;;;;;21.55;nan;61852.28;5031299;28;20179;-63
2023/08/17 01:02:01;;;;;;;5.88;3.85;;;;;;;21.48;nan;62000.31;5031364;28;20190;-63
2023/08/17 01:04:26;;;;;;;7.03;3.75;;;;;;;21.39;nan;61912.09;5031615;28;20203;-65
2023/08/17 01:06:52;;;;;;;6.10;3.53;;;;;;;21.45;nan;61763.50;5031345;28;20226;-65
2023/08/17 01:09:17;;;;;;;5.53;4.05;;;;;;;21.44;nan;61785.75;5035092;28;20194;-63
2023/08/17 01:12:29;;;;;;;7.88;3.95;;;;;;;21.37;nan;61827.19;5035007;28;20551;-63
2023/08/17 01:15:12;;;;;;;6.20;3.60;;;;;;;21.36;nan;61828.09;5034024;28;20607;-65
2023/08/17 01:17:47;;;;;;;5.25;3.40;;;;;;;21.12;nan;61760.38;5034882;28;20167;-65
2023/08/17 01:20:14;;;;;;;6.78;3.42;;;;;;;21.15;nan;61756.00;5034659;28;20182;-65
2023/08/17 01:22:46;;;;;;;5.82;3.47;;;;;;;21.21;nan;61793.44;5034810;28;20665;-62
2023/08/17 01:25:11;;;;;;;7.40;4.05;;;;;;;21.04;nan;61891.03;5034689;28;20597;-65
2023/08/17 01:27:41;;;;;;;6.82;3.75;;;;;;;20.92;nan;61750.69;5034661;28;20229;-63
2023/08/17 01:30:12;;;;;;;5.40;3.55;;;;;;;20.98;nan;61720.56;5034733;28;20199;-64
2023/08/17 01:32:50;;;;;;;4.32;3.45;;;;;;;20.65;nan;61707.06;5034882;28;20182;-65
2023/08/17 01:35:27;;;;;;;7.10;4.10;;;;;;;20.75;nan;61730.81;5034858;28;20171;-65
2023/08/17 01:37:55;;;;;;;6.50;3.90;;;;;;;20.78;nan;61729.03;5034897;28;20174;-65
2023/08/17 01:40:21;;;;;;;7.22;3.85;;;;;;;17.21;nan;61363.41;5034482;28;20176;-65
2023/08/17 01:42:49;;;;;;;7.30;4.05;;;;;;;20.45;nan;61616.91;5034504;28;20171;-65
2023/08/17 01:45:16;;;;;;;6.03;3.70;;;;;;;20.24;nan;61713.03;5033980;28;20167;-65
2023/08/17 01:47:41;;;;;;;9.00;4.28;;;;;;;20.21;nan;61618.78;5034126;28;20175;-64
2023/08/17 01:50:07;;;;;;;6.72;3.92;;;;;;;20.29;nan;61653.81;5034345;28;20257;-64
2023/08/17 01:52:32;;;;;;;5.00;3.55;;;;;;;20.27;nan;61615.22;5034267;28;20171;-64
2023/08/17 01:54:58;;;;;;;5.80;4.00;;;;;;;20.14;nan;61743.75;5034580;28;20186;-65
2023/08/17 01:57:23;;;;;;;9.52;4.00;;;;;;;20.14;nan;61764.50;5034254;28;20545;-62
2023/08/17 01:59:48;;;;;;;7.38;4.03;;;;;;;20.16;nan;61678.00;5034236;28;20256;-63
2023/08/17 02:02:14;;;;;;;8.43;3.97;;;;;;;20.23;nan;61626.81;5034625;28;20203;-63
2023/08/17 02:04:40;;;;;;;5.70;3.50;;;;;;;20.21;nan;61777.63;5034237;28;20171;-65
2023/08/17 02:07:05;;;;;;;7.35;4.38;;;;;;;19.98;nan;61582.38;5033125;28;20172;-65
2023/08/17 02:09:31;;;;;;;5.88;3.75;;;;;;;20.20;nan;61659.19;5033922;28;20664;-65
2023/08/17 02:11:56;;;;;;;5.85;3.97;;;;;;;20.00;nan;61611.16;5032466;28;20183;-63
2023/08/17 02:14:21;;;;;;;5.45;3.95;;;;;;;20.16;nan;61743.41;5033731;28;20172;-64
2023/08/17 02:16:47;;;;;;;6.32;4.20;;;;;;;20.03;nan;61668.44;5013841;28;20186;-63
2023/08/17 02:19:12;;;;;;;8.23;4.60;;;;;;;19.89;nan;61580.53;5013569;28;20218;-63
2023/08/17 02:21:37;;;;;;;10.38;4.50;;;;;;;19.83;nan;61576.34;5014029;28;20187;-63
2023/08/17 02:24:03;;;;;;;8.20;4.70;;;;;;;19.90;nan;61716.50;5013730;28;20558;-65
2023/08/17 02:26:30;;;;;;;8.82;4.15;;;;;;;19.88;nan;61581.44;5013888;28;20185;-64
2023/08/17 02:28:55;;;;;;;9.05;4.65;;;;;;;19.78;nan;61654.19;5013665;28;20195;-64
2023/08/17 02:31:21;;;;;;;6.50;4.28;;;;;;;19.79;nan;61660.50;5014045;28;20184;-64
2023/08/17 02:33:46;;;;;;;7.18;4.30;;;;;;;19.53;nan;61514.41;5013839;28;20172;-63
2023/08/17 02:36:11;;;;;;;7.35;4.45;;;;;;;19.77;nan;61611.00;5013655;28;20569;-65
2023/08/17 02:38:37;;;;;;;7.15;4.05;;;;;;;19.76;nan;61553.41;5013490;28;20192;-64
2023/08/17 02:41:02;;;;;;;6.40;4.22;;;;;;;19.70;nan;61559.56;5013479;28;20176;-63
2023/08/17 02:43:27;;;;;;;6.57;4.03;;;;;;;19.74;nan;61548.00;5013399;28;20491;-64
2023/08/17 02:45:53;;;;;;;6.85;4.35;;;;;;;19.74;nan;61527.25;5013490;28;20707;-64
2023/08/17 02:48:18;;;;;;;7.22;4.28;;;;;;;19.57;nan;61787.91;5013649;28;20172;-62
2023/08/17 02:50:44;;;;;;;8.80;3.72;;;;;;;19.59;nan;61505.66;5013463;28;20643;-64
2023/08/17 02:53:09;;;;;;;6.53;4.30;;;;;;;19.42;nan;61478.63;5013250;28;20568;-62
2023/08/17 02:55:35;;;;;;;9.20;4.72;;;;;;;19.47;nan;61603.50;5013323;28;20650;-63
2023/08/17 02:58:01;;;;;;;9.10;4.70;;;;;;;19.40;nan;61749.00;5013157;28;20172;-65
2023/08/17 03:00:26;;;;;;;9.88;5.18;;;;;;;19.42;nan;61501.97;5011944;28;20180;-64
2023/08/17 03:02:52;;;;;;;7.35;4.18;;;;;;;19.41;nan;61498.78;5023036;28;20203;-64
2023/08/17 03:05:18;;;;;;;8.23;4.38;;;;;;;19.25;nan;61591.50;5032110;28;20233;-65
2023/08/17 03:07:43;;;;;;;8.45;4.78;;;;;;;19.20;nan;61510.72;5033018;28;20727;-62
2023/08/17 03:10:09;;;;;;;8.70;4.40;;;;;;;19.32;nan;61454.38;5032821;28;20705;-63
2023/08/17 03:12:34;;;;;;;8.93;4.43;;;;;;;19.13;nan;61537.03;5032385;28;20266;-62
2023/08/17 03:15:00;;;;;;;5.93;4.00;;;;;;;19.25;nan;61488.47;5032672;28;20206;-65
2023/08/17 03:17:25;;;;;;;5.80;4.00;;;;;;;19.01;nan;61443.19;5033093;28;20569;-63
2023/08/17 03:19:50;;;;;;;6.95;3.97;;;;;;;19.16;nan;61574.09;5032622;28;20533;-62
2023/08/17 03:22:16;;;;;;;6.55;4.00;;;;;;;19.03;nan;61421.56;5032308;28;20215;-64
2023/08/17 03:24:41;;;;;;;7.15;4.07;;;;;;;19.19;nan;61435.03;5032241;28;20182;-65
2023/08/17 03:27:06;;;;;;;8.82;4.65;;;;;;;19.22;nan;61451.41;5032944;28;20254;-63
2023/08/17 03:29:32;;;;;;;11.38;4.20;;;;;;;19.17;nan;61680.88;5031371;28;20199;-65
2023/08/17 03:31:57;;;;;;;6.32;3.85;;;;;;;19.03;nan;61538.66;5032108;28;20183;-64
2023/08/17 03:34:23;;;;;;;7.15;3.85;;;;;;;19.14;nan;61459.91;5032587;28;20571;-62
2023/08/17 03:36:49;;;;;;;6.15;4.00;;;;;;;18.96;nan;61561.81;5032430;28;20675;-61
2023/08/17 03:39:15;;;;;;;5.88;3.88;;;;;;;19.17;nan;61507.34;5030855;28;20200;-63
2023/08/17 03:41:41;;;;;;;4.72;3.50;;;;;;;19.22;nan;61448.25;5031574;28;20250;-64
2023/08/17 03:44:07;;;;;;;5.75;3.78;;;;;;;19.27;nan;61523.84;5031680;28;20250;-63
2023/08/17 03:46:32;;;;;;;7.20;3.78;;;;;;;19.46;nan;61544.81;5031936;28;20284;-61
2023/08/17 03:48:58;;;;;;;5.90;4.00;;;;;;;19.65;nan;61563.72;5031708;28;20187;-64
2023/08/17 03:51:23;;;;;;;6.72;4.05;;;;;;;20.06;nan;61675.00;5031736;28;20171;-64
2023/08/17 03:53:49;;;;;;;6.20;3.90;;;;;;;20.48;nan;61799.97;5031724;28;20302;-62
2023/08/17 03:56:14;;;;;;;6.60;3.72;;;;;;;20.91;nan;62019.69;5031632;28;20225;-64
2023/08/17 03:58:41;;;;;;;7.95;4.35;;;;;;;21.34;nan;61792.03;5031119;28;20175;-64
2023/08/17 04:01:06;;;;;;;9.57;4.75;;;;;;;21.57;nan;61825.94;5031400;28;20175;-65
2023/08/17 04:03:32;;;;;;;6.30;4.35;;;;;;;22.13;nan;61894.22;5031519;28;20644;-64
2023/08/17 04:05:57;;;;;;;9.65;4.47;;;;;;;22.76;nan;62066.31;5030924;28;20171;-65
2023/08/17 04:08:23;;;;;;;7.05;4.32;;;;;;;23.47;nan;62031.91;5029749;28;20207;-64
2023/08/17 04:10:48;;;;;;;11.73;4.15;;;;;;;23.98;nan;62083.56;5030519;28;20708;-64
2023/08/17 04:13:13;;;;;;;13.68;5.00;;;;;;;24.70;nan;62412.75;5031182;28;20172;-64
2023/08/17 04:15:39;;;;;;;8.40;5.10;;;;;;;25.57;nan;62301.78;5032003;28;20175;-67
2023/08/17 04:18:04;;;;;;;8.95;4.32;;;;;;;26.05;nan;62411.56;5030704;28;20495;-67
2023/08/17 04:20:30;;;;;;;15.15;4.60;;;;;;;26.78;nan;62476.06;5031452;28;20186;-65
2023/08/17 04:22:55;;;;;;;6.03;4.03;;;;;;;27.15;nan;62625.41;5030894;28;20175;-66
2023/08/17 04:25:20;;;;;;;7.20;4.18;;;;;;;27.24;nan;62562.22;5030271;28;20194;-67
2023/08/17 04:27:46;;;;;;;6.63;4.18;;;;;;;27.36;nan;62679.81;5030544;28;20208;-64
2023/08/17 04:30:12;;;;;;;6.47;4.40;;;;;;;27.34;nan;62748.97;5031723;28;20222;-63
2023/08/17 04:32:37;;;;;;;7.82;4.03;;;;;;;27.49;nan;62632.28;5030679;28;20634;-63
2023/08/17 04:35:03;;;;;;;6.53;4.63;;;;;;;27.59;nan;62721.97;5030586;28;20326;-64
2023/08/17 04:37:28;;;;;;;10.35;4.70;;;;;;;27.61;nan;62645.44;5031376;28;20187;-64
2023/08/17 04:39:54;;;;;;;7.57;4.57;;;;;;;27.68;nan;62698.13;5030186;28;20654;-64
2023/08/17 04:42:19;;;;;;;7.00;4.70;;;;;;;27.39;nan;62689.06;5032613;28;20736;-65
2023/08/17 04:44:45;;;;;;;8.27;4.53;;;;;;;27.16;nan;62579.31;5034638;28;20187;-66
2023/08/17 04:47:11;;;;;;;7.72;4.35;;;;;;;26.94;nan;62512.19;5034513;28;20575;-64
2023/08/17 04:49:36;;;;;;;8.90;4.57;;;;;;;26.65;nan;62534.63;5033161;28;20255;-66
2023/08/17 04:52:02;;;;;;;7.22;4.38;;;;;;;26.63;nan;62579.56;5034352;28;20178;-66
2023/08/17 04:54:28;;;;;;;8.07;4.50;;;;;;;26.32;nan;62604.31;5033470;28;20683;-65
2023/08/17 04:56:53;;;;;;;10.73;4.72;;;;;;;26.26;nan;62398.31;5034081;28;20210;-63
2023/08/17 04:59:18;;;;;;;6.85;4.43;;;;;;;25.84;nan;62374.47;5033317;28;20270;-63
2023/08/17 05:01:44;;;;;;;7.65;4.80;;;;;;;25.61;nan;62356.66;5034962;28;20266;-65
2023/08/17 05:04:09;;;;;;;6.38;4.38;;;;;;;25.46;nan;62316.50;5033924;28;20270;-63
2023/08/17 05:06:35;;;;;;;8.07;4.40;;;;;;;25.21;nan;62491.44;5033870;28;20183;-65
2023/08/17 05:09:01;;;;;;;6.43;4.00;;;;;;;25.07;nan;62215.03;5032728;28;20318;-64
2023/08/17 05:11:26;;;;;;;9.77;5.00;;;;;;;24.84;nan;62198.69;5031947;28;20545;-66
2023/08/17 05:13:51;;;;;;;7.80;4.55;;;;;;;24.56;nan;62099.97;5034116;28;20183;-63
2023/08/17 05:16:17;;;;;;;9.90;4.50;;;;;;;24.75;nan;62204.69;5032754;28;20191;-63
2023/08/17 05:18:42;;;;;;;8.00;5.00;;;;;;;24.59;nan;62443.16;5034082;28;20678;-67
2023/08/17 05:21:07;;;;;;;8.07;4.40;;;;;;;24.73;nan;62238.44;5034053;28;20211;-65
2023/08/17 05:23:33;;;;;;;8.73;4.40;;;;;;;24.59;nan;62210.56;5033126;28;20179;-66
2023/08/17 05:25:58;;;;;;;10.23;4.32;;;;;;;24.69;nan;62257.97;5034066;28;20183;-65
2023/08/17 05:28:24;;;;;;;6.28;3.97;;;;;;;24.67;nan;62219.09;5034168;28;20245;-65
2023/08/17 05:30:50;;;;;;;7.90;4.20;;;;;;;24.59;nan;62272.69;5033475;28;20298;-64
2023/08/17 05:33:15;;;;;;;7.25;3.95;;;;;;;24.62;nan;62339.41;5033570;28;20184;-64
2023/08/17 05:35:42;;;;;;;6.32;4.13;;;;;;;24.85;nan;62265.19;5034019;28;20171;-67
2023/08/17 05:38:09;;;;;;;5.82;4.05;;;;;;;24.95;nan;62240.59;5032946;28;20192;-64
2023/08/17 05:40:34;;;;;;;8.10;4.28;;;;;;;25.04;nan;62263.94;5032268;28;20179;-65
2023/08/17 05:43:00;;;;;;;7.15;3.92;;;;;;;24.85;nan;62203.03;5033298;28;20191;-65
2023/08/17 05:45:25;;;;;;;6.60;3.88;;;;;;;25.24;nan;62298.69;5032831;28;20186;-67
2023/08/17 05:47:52;;;;;;;5.38;3.78;;;;;;;25.41;nan;62344.25;5032130;28;20190;-65
2023/08/17 05:50:17;;;;;;;6.63;3.60;;;;;;;25.44;nan;62285.44;5032726;28;20229;-64
2023/08/17 05:52:42;;;;;;;7.20;3.50;;;;;;;25.35;nan;62518.50;5031579;28;20659;-65
2023/08/17 05:55:08;;;;;;;5.03;3.33;;;;;;;25.50;nan;62365.56;5031288;28;20183;-64
2023/08/17 05:57:34;;;;;;;5.32;3.67;;;;;;;25.36;nan;62409.75;5032901;28;20297;-65
2023/08/17 05:59:59;;;;;;;6.70;3.97;;;;;;;25.69;nan;62359.97;5032538;28;20194;-63
2023/08/17 06:02:25;;;;;;;8.10;4.75;;;;;;;25.67;nan;62533.06;5031961;28;20176;-67
2023/08/17 06:04:51;;;;;;;5.00;3.53;;;;;;;25.49;nan;62444.97;5032843;28;20619;-66
2023/08/17 06:07:17;;;;;;;9.77;4.18;;;;;;;25.71;nan;62359.63;5031889;28;20226;-65
2023/08/17 06:09:42;;;;;;;9.00;4.22;;;;;;;25.99;nan;62375.31;5031945;28;20673;-64
2023/08/17 06:12:08;;;;;;;8.68;3.80;;;;;;;25.89;nan;62399.09;5032875;28;20203;-64
2023/08/17 06:14:34;;;;;;;6.72;4.15;;;;;;;25.81;nan;62321.28;5032155;28;20188;-66
2023/08/17 06:16:59;;;;;;;8.70;3.90;;;;;;;25.78;nan;62509.59;5032124;28;20186;-63
2023/08/17 06:19:25;;;;;;;5.57;3.92;;;;;;;25.96;nan;62396.03;5031562;28;20191;-64
2023/08/17 06:21:51;;;;;;;5.40;3.50;;;;;;;25.22;nan;62406.25;5031592;28;20179;-66
2023/08/17 06:24:16;;;;;;;5.75;3.92;;;;;;;26.11;nan;62447.22;5031038;28;20341;-66
2023/08/17 06:26:42;;;;;;;9.00;3.80;;;;;;;26.25;nan;62420.75;5029855;28;20265;-65
2023/08/17 06:29:07;;;;;;;7.40;3.70;;;;;;;23.58;nan;62218.66;5032279;28;20290;-64
2023/08/17 06:31:33;;;;;;;7.93;3.72;;;;;;;26.31;nan;62419.75;5031561;28;20183;-67
2023/08/17 06:33:58;;;;;;;8.25;4.35;;;;;;;26.05;nan;62408.34;5031911;28;20180;-65
2023/08/17 06:36:24;;;;;;;6.47;3.97;;;;;;;26.22;nan;62386.44;5031509;28;20233;-63
2023/08/17 06:38:49;;;;;;;4.82;3.58;;;;;;;26.55;nan;62449.19;5031736;28;20187;-66
2023/08/17 06:41:16;;;;;;;6.05;3.83;;;;;;;26.73;nan;62541.16;5031103;28;20194;-66
2023/08/17 06:43:41;;;;;;;6.72;3.47;;;;;;;26.57;nan;62637.66;5031272;28;20183;-66
2023/08/17 06:46:07;;;;;;;6.47;4.03;;;;;;;27.24;nan;62630.47;5028417;28;20175;-64
2023/08/17 06:48:32;;;;;;;7.65;3.53;;;;;;;27.25;nan;62563.38;5031645;28;20559;-66
2023/08/17 06:50:57;;;;;;;11.13;5.90;;;;;;;27.30;nan;62588.94;5031926;28;20643;-64
2023/08/17 06:53:23;;;;;;;10.55;5.75;;;;;;;27.23;nan;62584.72;5031114;28;20258;-67
2023/08/17 06:55:48;;;;;;;6.50;4.10;;;;;;;27.33;nan;62600.81;5032260;28;20245;-66
2023/08/17 06:58:14;;;;;;;6.25;3.97;;;;;;;27.33;nan;62627.06;5031283;28;20250;-67
2023/08/17 07:00:40;;;;;;;5.80;3.50;;;;;;;27.65;nan;62681.56;5031470;28;20187;-63
2023/08/17 07:03:06;;;;;;;6.03;3.65;;;;;;;27.69;nan;62880.53;5030733;28;20190;-64
2023/08/17 07:05:32;;;;;;;6.88;4.35;;;;;;;27.79;nan;62773.22;5030747;28;20199;-65
2023/08/17 07:07:59;;;;;;;7.20;4.35;;;;;;;27.85;nan;62772.22;5030853;28;20215;-65
2023/08/17 07:10:24;;;;;;;8.07;3.47;;;;;;;28.10;nan;62680.59;5030387;28;20337;-65
2023/08/17 07:12:50;;;;;;;5.45;3.60;;;;;;;28.10;nan;62722.03;5031055;28;20330;-61
2023/08/17 07:15:15;;;;;;;4.28;3.05;;;;;;;28.00;nan;62847.81;5030704;28;20669;-65
2023/08/17 07:17:41;;;;;;;5.88;3.92;;;;;;;28.08;nan;62833.34;5030626;28;20210;-64
2023/08/17 07:20:11;;;;;;;6.13;3.28;;;;;;;28.24;nan;62732.28;5031681;28;20197;-66
2023/08/17 07:22:36;;;;;;;6.82;3.67;;;;;;;28.22;nan;62708.94;5029555;28;20724;-64
2023/08/17 07:25:03;;;;;;;7.05;3.47;;;;;;;28.45;nan;62735.88;5029519;28;20182;-66
2023/08/17 07:27:29;;;;;;;6.22;3.13;;;;;;;28.43;nan;62865.09;5031126;28;20179;-66
2023/08/17 07:29:54;;;;;;;4.30;3.30;;;;;;;28.31;nan;62730.34;5030988;28;20191;-65
2023/08/17 07:32:20;;;;;;;4.47;3.08;;;;;;;28.39;nan;62729.00;5030326;28;20218;-65
2023/08/17 07:34:47;;;;;;;4.78;3.55;;;;;;;28.73;nan;62798.44;5029862;28;20174;-66
2023/08/17 07:37:13;;;;;;;5.50;3.22;;;;;;;28.67;nan;62797.34;5030755;28;20297;-66
2023/08/17 07:39:38;;;;;;;5.53;3.40;;;;;;;28.80;nan;62830.72;5031077;28;20196;-67
2023/08/17 07:42:04;;;;;;;5.20;3.63;;;;;;;29.12;nan;62871.56;5031531;28;20191;-67
2023/08/17 07:44:31;;;;;;;4.18;3.13;;;;;;;29.10;nan;62961.41;5030963;28;20734;-69
2023/08/17 07:46:57;;;;;;;4.00;2.95;;;;;;;29.07;nan;62855.28;5031744;28;20265;-67
2023/08/17 07:49:24;;;;;;;5.07;3.00;;;;;;;29.53;nan;62973.41;5031231;28;20229;-64
2023/08/17 07:51:49;;;;;;;8.50;3.25;;;;;;;29.53;nan;62868.59;5031119;28;20213;-67
2023/08/17 07:54:15;;;;;;;4.55;3.08;;;;;;;26.35;nan;62487.22;5030193;28;20182;-64
2023/08/17 07:56:40;;;;;;;6.75;3.92;;;;;;;29.84;nan;62972.13;5030328;28;20187;-64
2023/08/17 07:59:06;;;;;;;4.63;2.97;;;;;;;30.00;nan;63000.50;5030440;28;20663;-65
2023/08/17 08:01:31;;;;;;;4.55;2.80;;;;;;;30.16;nan;62982.56;5029617;28;20214;-66
2023/08/17 08:03:57;;;;;;;7.25;3.63;;;;;;;30.19;nan;62990.72;5029976;28;20186;-66
2023/08/17 08:06:22;;;;;;;6.72;3.53;;;;;;;30.07;nan;62961.09;5029674;28;20175;-67
2023/08/17 08:08:48;;;;;;;5.57;3.30;;;;;;;30.11;nan;63013.16;5028806;28;20607;-65
2023/08/17 08:11:13;;;;;;;4.97;3.05;;;;;;;30.07;nan;63014.41;5031431;28;20175;-67
2023/08/17 08:13:39;;;;;;;3.45;2.42;;;;;;;29.84;nan;62946.34;5029134;28;20526;-65
2023/08/17 08:16:06;;;;;;;3.88;2.35;;;;;;;29.82;nan;62983.59;5029917;28;20179;-64
2023/08/17 08:18:31;;;;;;;5.60;3.28;;;;;;;30.07;nan;63014.41;5029487;28;20273;-66
2023/08/17 08:20:57;;;;;;;5.65;3.20;;;;;;;30.49;nan;63095.88;5029754;28;20632;-66
2023/08/17 08:23:22;;;;;;;4.07;2.70;;;;;;;30.54;nan;63093.69;5028262;28;20218;-64
2023/08/17 08:25:47;;;;;;;5.20;3.10;;;;;;;30.80;nan;63134.19;5030304;28;20182;-67
2023/08/17 08:28:13;;;;;;;4.85;3.00;;;;;;;30.95;nan;63193.13;5031091;28;20224;-67
2023/08/17 08:30:39;;;;;;;6.25;2.97;;;;;;;30.93;nan;63244.22;5031037;28;20689;-66
2023/08/17 08:33:04;;;;;;;3.75;3.00;;;;;;;30.92;nan;63179.69;5031441;28;20190;-64
2023/08/17 08:35:30;;;;;;;5.03;2.55;;;;;;;31.11;nan;63203.66;5031155;28;20162;-68
2023/08/17 08:37:55;;;;;;;4.82;2.67;;;;;;;31.01;nan;63147.81;5030837;28;20676;-67
2023/08/17 08:40:27;;;;;;;5.88;3.13;;;;;;;30.96;nan;63175.78;5031069;28;20174;-67
2023/08/17 08:42:53;;;;;;;3.83;2.88;;;;;;;31.02;nan;63193.88;5031341;28;20165;-64
2023/08/17 08:45:20;;;;;;;3.45;2.83;;;;;;;30.93;nan;63154.44;5030875;28;20170;-67
2023/08/17 08:47:46;;;;;;;2.92;2.47;;;;;;;30.84;nan;63138.81;5031076;28;20175;-67
2023/08/17 08:50:19;;;;;;;3.22;2.42;;;;;;;30.74;nan;63079.19;5030267;28;20194;-64
2023/08/17 08:53:07;;;;;;;3.67;2.60;;;;;;;30.72;nan;63154.00;5031012;28;20609;-64
2023/08/17 08:55:48;;;;;;;4.32;2.85;;;;;;;30.55;nan;63113.91;5029472;28;20178;-66
2023/08/17 08:58:17;;;;;;;4.63;2.75;;;;;;;30.57;nan;63145.22;5030979;28;20167;-67
2023/08/17 09:00:47;;;;;;;3.45;2.67;;;;;;;30.65;nan;63204.59;5030915;28;20226;-64
2023/08/17 09:03:20;;;;;;;6.82;3.50;;;;;;;30.77;nan;63161.84;5030653;28;20181;-66
2023/08/17 09:05:50;;;;;;;3.00;2.58;;;;;;;31.05;nan;63186.75;5029491;28;20221;-64
2023/08/17 09:08:22;;;;;;;4.20;2.70;;;;;;;31.14;nan;63180.69;5024329;28;20238;-65
2023/08/17 09:10:48;;;;;;;6.07;2.60;;;;;;;30.89;nan;63228.47;5025864;28;20207;-68
2023/08/17 09:13:14;;;;;;;3.10;2.40;;;;;;;30.60;nan;63169.81;5030518;28;20262;-64
2023/08/17 09:15:39;;;;;;;4.60;3.03;;;;;;;30.89;nan;63223.75;5030773;28;20250;-63
2023/08/17 09:18:07;;;;;;;5.00;2.60;;;;;;;30.99;nan;63189.81;5025300;28;20221;-62
2023/08/17 09:20:41;;;;;;;3.65;2.90;;;;;;;30.76;nan;63123.72;5013714;28;20627;-66
2023/08/17 09:23:12;;;;;;;3.78;2.72;;;;;;;30.38;nan;63164.97;5030839;28;20204;-64
2023/08/17 09:25:39;;;;;;;3.95;2.92;;;;;;;30.51;nan;62319.84;5029806;28;20214;-64
2023/08/17 09:28:09;;;;;;;5.63;2.80;;;;;;;30.73;nan;63064.84;5027009;28;20585;-68
2023/08/17 09:30:50;;;;;;;3.40;2.75;;;;;;;30.84;nan;63132.94;5034152;28;20198;-67
2023/08/17 09:33:15;;;;;;;4.00;2.78;;;;;;;30.88;nan;63214.13;5034042;28;20288;-66
2023/08/17 09:35:42;;;;;;;6.45;2.90;;;;;;;30.79;nan;63148.31;5034050;28;20273;-65
2023/08/17 09:38:07;;;;;;;3.60;2.90;;;;;;;31.03;nan;63131.03;5029167;28;20208;-67
2023/08/17 09:40:33;;;;;;;4.25;3.10;;;;;;;30.99;nan;63166.03;5034071;28;20303;-67
2023/08/17 09:42:58;;;;;;;4.25;2.97;;;;;;;31.32;nan;63185.56;5034300;28;20167;-65
2023/08/17 09:45:27;;;;;;;5.20;3.20;;;;;;;31.66;nan;63271.19;5034634;28;20175;-66
2023/08/17 09:47:52;;;;;;;3.33;2.72;;;;;;;31.85;nan;63349.19;5033110;28;20186;-63
2023/08/17 09:50:22;;;;;;;3.80;3.00;;;;;;;32.01;nan;63348.56;5034072;28;20554;-65
2023/08/17 09:52:53;;;;;;;11.27;3.40;;;;;;;32.03;nan;63382.63;5034230;28;20181;-65
2023/08/17 09:55:20;;;;;;;4.85;3.38;;;;;;;31.97;nan;63320.16;5034198;28;20723;-65
2023/08/17 09:57:48;;;;;;;4.13;2.70;;;;;;;31.96;nan;63346.00;5034154;28;20181;-67
2023/08/17 10:00:14;;;;;;;4.43;3.15;;;;;;;32.22;nan;63401.94;5034133;28;20677;-67
2023/08/17 10:02:39;;;;;;;3.88;2.70;;;;;;;32.09;nan;63413.38;5032687;28;20213;-68
2023/08/17 10:05:07;;;;;;;3.10;2.35;;;;;;;31.68;nan;63345.44;5032271;28;20269;-67
2023/08/17 10:07:38;;;;;;;4.20;2.97;;;;;;;31.80;nan;63393.09;5032476;28;20325;-67
2023/08/17 10:10:05;;;;;;;4.18;3.33;;;;;;;32.26;nan;63360.97;5033898;28;20203;-67
2023/08/17 10:12:39;;;;;;;5.85;2.97;;;;;;;30.70;nan;63202.44;5013836;28;20266;-66
2023/08/17 10:15:10;;;;;;;4.15;2.90;;;;;;;32.41;nan;63400.03;5019802;28;20708;-69
2023/08/17 10:18:08;;;;;;;3.97;2.80;;;;;;;32.46;nan;63458.19;5032459;28;20656;-67
2023/08/17 10:20:37;;;;;;;6.15;2.90;;;;;;;32.63;nan;63456.06;5008894;28;20207;-68
2023/08/17 10:23:14;;;;;;;5.18;2.80;;;;;;;32.49;nan;63519.31;5031109;28;20198;-65
2023/08/17 10:25:42;;;;;;;4.15;2.70;;;;;;;32.62;nan;63558.75;5032989;28;20189;-66
2023/08/17 10:28:09;;;;;;;3.88;2.80;;;;;;;32.22;nan;63404.56;5021495;28;20183;-67
2023/08/17 10:30:36;;;;;;;4.03;2.90;;;;;;;31.61;nan;63440.47;5028894;28;20201;-68
2023/08/17 10:33:04;;;;;;;5.78;2.47;;;;;;;31.96;nan;63438.00;5027949;28;20251;-67
2023/08/17 10:35:30;;;;;;;4.15;2.95;;;;;;;32.03;nan;63384.69;5031477;28;20591;-65
2023/08/17 10:37:57;;;;;;;4.13;2.92;;;;;;;32.27;nan;63352.13;5027106;28;20270;-68
2023/08/17 10:40:27;;;;;;;3.78;2.80;;;;;;;31.96;nan;63284.59;5032339;28;20256;-67
2023/08/17 10:42:56;;;;;;;5.63;2.72;;;;;;;32.00;nan;63246.88;5032492;28;20182;-65
2023/08/17 10:45:21;;;;;;;3.47;2.40;;;;;;;32.27;nan;63418.28;5032609;28;20214;-67
2023/08/17 10:47:47;;;;;;;3.33;2.33;;;;;;;32.09;nan;63545.06;5026974;28;20213;-66
2023/08/17 10:50:23;;;;;;;2.97;2.45;;;;;;;31.88;nan;63278.59;5031926;28;20681;-65
2023/08/17 10:52:52;;;;;;;3.20;2.35;;;;;;;31.96;nan;63279.88;5032643;28;20229;-65
2023/08/17 10:55:35;;;;;;;6.00;2.58;;;;;;;31.66;nan;63208.31;5029708;28;20611;-65
2023/08/17 10:58:01;;;;;;;2.90;2.30;;;;;;;31.94;nan;63306.13;5025376;28;20233;-66
2023/08/17 11:00:33;;;;;;;3.45;2.42;;;;;;;31.62;nan;63205.78;5030205;28;20257;-68
2023/08/17 11:03:01;;;;;;;3.08;2.58;;;;;;;31.98;nan;63316.59;5031163;28;20183;-68
2023/08/17 11:05:40;;;;;;;3.17;2.50;;;;;;;32.20;nan;63404.31;5031209;28;20270;-67
2023/08/17 11:08:13;;;;;;;4.57;2.88;;;;;;;32.15;nan;63358.88;5029212;28;20308;-68
2023/08/17 11:10:39;;;;;;;3.15;2.33;;;;;;;32.21;nan;63358.44;5022601;28;20689;-68
2023/08/17 11:13:05;;;;;;;2.85;2.20;;;;;;;32.30;nan;63450.84;5030588;28;20228;-66
2023/08/17 11:15:44;;;;;;;3.05;2.63;;;;;;;32.51;nan;63455.44;5030074;28;20179;-67
2023/08/17 11:18:12;;;;;;;18.42;6.65;;;;;;;32.58;nan;63434.97;5026530;28;20185;-67
2023/08/17 11:20:39;;;;;;;18.70;7.03;;;;;;;32.73;nan;63438.50;5032439;28;20202;-63
2023/08/17 11:23:06;;;;;;;9.25;4.72;;;;;;;32.56;nan;63419.41;5031930;28;20321;-67
2023/08/17 11:25:32;;;;;;;7.35;4.07;;;;;;;32.83;nan;63540.09;5031338;28;20293;-63
2023/08/17 11:27:59;;;;;;;9.32;4.47;;;;;;;32.80;nan;63531.31;5029048;28;20178;-67
2023/08/17 11:30:25;;;;;;;4.50;2.58;;;;;;;33.05;nan;63639.16;5030442;28;20203;-67
2023/08/17 11:32:52;;;;;;;3.50;2.42;;;;;;;32.91;nan;63467.22;5032247;28;20214;-65
2023/08/17 11:35:18;;;;;;;3.08;2.40;;;;;;;32.53;nan;63515.97;5031514;28;20194;-68
2023/08/17 11:37:43;;;;;;;3.33;2.55;;;;;;;32.45;nan;63377.63;5029121;28;20232;-66
2023/08/17 11:40:13;;;;;;;8.25;3.15;;;;;;;32.50;nan;63496.63;5030910;28;20178;-64
2023/08/17 11:42:39;;;;;;;4.25;2.70;;;;;;;32.61;nan;63366.94;5032310;28;20291;-67
2023/08/17 11:45:05;;;;;;;3.85;2.65;;;;;;;32.81;nan;63574.88;5031984;28;20236;-64
2023/08/17 11:47:32;;;;;;;4.13;2.97;;;;;;;33.16;nan;63493.47;5025840;28;20221;-65
2023/08/17 11:50:05;;;;;;;4.40;3.00;;;;;;;33.40;nan;63584.25;5031569;28;20191;-65